createdAt,value
2016-11-03T15:06:58.615Z,684
2016-11-03T15:07:39.117Z,660
2016-11-03T15:08:19.632Z,652
2016-11-03T15:09:03.610Z,664
2016-11-03T15:09:44.827Z,684
2016-11-03T15:10:25.398Z,652
2016-11-03T15:12:23.536Z,648
2016-11-03T15:13:04.094Z,640
2016-11-03T15:13:44.691Z,652
2016-11-03T15:14:25.560Z,644
2016-11-03T15:15:05.846Z,616
2016-11-03T15:15:46.360Z,576
2016-11-03T15:16:26.861Z,636
2016-11-03T15:22:59.663Z,560
2016-11-03T15:23:40.152Z,536
2016-11-03T15:24:20.676Z,560
2016-11-03T15:25:01.225Z,544
2016-11-03T15:25:41.768Z,520
2016-11-03T15:26:22.341Z,500
2016-11-03T15:27:03.249Z,476
2016-11-03T15:27:43.745Z,452
2016-11-03T15:28:24.224Z,436
2016-11-03T15:29:04.731Z,416
2016-11-03T15:29:45.226Z,400
2016-11-03T15:30:25.807Z,384
2016-11-03T15:31:06.320Z,368
2016-11-03T15:31:46.824Z,352
2016-11-03T15:32:27.299Z,340
2016-11-03T15:34:55.813Z,292
2016-11-03T15:35:36.250Z,276
2016-11-03T15:38:04.406Z,216
2016-11-03T15:38:45.245Z,200
2016-11-03T15:39:25.466Z,188
2016-11-03T15:40:06.058Z,180
2016-11-03T15:40:46.621Z,168
2016-11-03T15:41:27.097Z,160
2016-11-03T15:42:07.604Z,156
2016-11-03T15:42:48.097Z,148
2016-11-03T15:43:28.654Z,144
2016-11-03T15:44:09.179Z,136
2016-11-03T15:44:49.667Z,128
2016-11-03T15:45:33.885Z,124
2016-11-03T15:46:14.904Z,120
2016-11-03T15:46:55.409Z,116
2016-11-03T15:47:35.941Z,112
2016-11-03T15:48:16.421Z,108
2016-11-03T15:48:56.943Z,104
2016-11-03T15:49:37.418Z,96
2016-11-03T15:50:17.934Z,92
2016-11-03T15:50:58.418Z,92
2016-11-03T15:51:38.879Z,84
2016-11-03T15:52:19.366Z,80
2016-11-03T15:52:59.904Z,72
2016-11-03T15:53:40.400Z,72
2016-11-03T15:54:20.859Z,68
2016-11-03T15:55:01.373Z,60
2016-11-03T15:55:42.542Z,56
2016-11-03T15:56:23.048Z,56
2016-11-03T15:57:03.481Z,48
2016-11-03T15:57:44.068Z,44
2016-11-03T15:58:24.565Z,40
2016-11-03T15:59:05.043Z,36
2016-11-03T15:59:45.550Z,32
2016-11-03T16:00:26.024Z,28
2016-11-03T16:01:06.478Z,28
2016-11-03T16:01:46.991Z,24
2016-11-03T16:02:27.514Z,20
2016-11-03T16:03:07.951Z,20
2016-11-03T16:03:48.461Z,20
2016-11-03T16:04:28.945Z,16
2016-11-03T16:05:09.606Z,16
2016-11-03T16:05:50.026Z,16
2016-11-03T16:06:30.512Z,12
2016-11-03T16:07:11.022Z,12
2016-11-03T16:07:51.540Z,12
2016-11-03T16:08:32.026Z,8
2016-11-03T16:09:12.534Z,12
2016-11-03T16:09:52.992Z,8
2016-11-03T16:10:33.452Z,8
2016-11-03T16:11:13.923Z,8
2016-11-03T16:11:54.415Z,8
2016-11-03T16:12:34.907Z,8
2016-11-03T16:13:15.403Z,8
2016-11-03T16:13:55.913Z,8
2016-11-03T16:14:36.376Z,4
2016-11-03T16:15:16.905Z,4
2016-11-03T16:15:57.380Z,4
2016-11-03T16:16:37.884Z,4
2016-11-03T16:17:18.377Z,4
2016-11-03T16:17:58.885Z,0
2016-11-03T16:18:39.361Z,0
2016-11-03T16:19:19.881Z,0
2016-11-03T16:20:00.366Z,0
2016-11-03T16:20:40.820Z,0
2016-11-03T16:21:21.323Z,0
2016-11-03T16:22:01.804Z,0
2016-11-03T16:22:42.319Z,0
2016-11-03T16:23:22.776Z,0
2016-11-03T16:24:03.278Z,0
2016-11-03T16:24:43.760Z,0
2016-11-03T16:25:27.117Z,0
2016-11-03T16:26:07.622Z,0
2016-11-03T16:26:48.125Z,0
2016-11-03T16:27:28.667Z,0
2016-11-03T16:28:09.129Z,0
2016-11-03T16:28:49.600Z,0
2016-11-03T16:29:30.109Z,0
2016-11-03T16:30:10.579Z,0
2016-11-03T16:30:51.064Z,0
2016-11-03T16:31:31.557Z,0
2016-11-03T16:32:12.027Z,0
2016-11-03T16:34:50.587Z,0
2016-11-03T16:35:31.522Z,0
2016-11-03T16:36:12.018Z,0
2016-11-03T16:36:52.545Z,0
2016-11-03T16:37:33.033Z,0
2016-11-03T16:38:13.541Z,0
2016-11-03T16:38:54.023Z,0
2016-11-03T16:39:34.509Z,0
2016-11-03T16:40:14.965Z,0
2016-11-03T16:40:55.470Z,0
2016-11-03T16:41:37.371Z,0
2016-11-03T16:42:19.044Z,0
2016-11-03T16:42:59.511Z,0
2016-11-03T16:43:39.992Z,0
2016-11-03T16:44:20.486Z,0
2016-11-03T16:45:00.977Z,0
2016-11-03T16:45:41.500Z,0
2016-11-03T16:46:21.969Z,0
2016-11-03T16:47:02.481Z,0
2016-11-03T16:47:42.972Z,0
2016-11-03T16:48:23.438Z,0
2016-11-03T16:49:03.934Z,0
2016-11-03T16:49:44.385Z,0
2016-11-03T16:50:24.870Z,0
2016-11-03T16:51:05.376Z,0
2016-11-03T16:51:45.832Z,0
2016-11-03T16:52:26.306Z,0
2016-11-03T16:53:06.821Z,0
2016-11-03T16:53:47.350Z,0
2016-11-03T16:54:28.713Z,0
2016-11-03T16:55:09.204Z,0
2016-11-03T16:55:49.740Z,0
2016-11-03T16:56:30.243Z,0
2016-11-03T16:57:10.736Z,0
2016-11-03T16:57:51.226Z,0
2016-11-03T16:58:31.702Z,0
2016-11-03T16:59:12.195Z,0
2016-11-03T16:59:52.687Z,0
2016-11-03T17:00:33.400Z,0
2016-11-03T17:01:13.904Z,0
2016-11-03T17:01:54.373Z,0
2016-11-03T17:02:34.829Z,0
2016-11-03T17:03:15.300Z,0
2016-11-03T17:03:55.766Z,0
2016-11-03T17:04:36.260Z,0
2016-11-03T17:05:16.732Z,0
2016-11-03T17:05:57.235Z,0
2016-11-03T17:06:37.718Z,0
2016-11-03T17:07:18.197Z,0
2016-11-03T17:07:58.718Z,0
2016-11-03T17:08:39.197Z,0
2016-11-03T17:09:19.648Z,0
2016-11-03T17:10:00.423Z,0
2016-11-03T17:10:40.998Z,0
2016-11-03T17:11:21.474Z,0
2016-11-03T17:12:01.996Z,0
2016-11-03T17:12:42.501Z,0
2016-11-03T17:13:22.987Z,0
2016-11-03T17:14:03.474Z,0
2016-11-03T17:14:43.994Z,0
2016-11-03T17:15:24.464Z,0
2016-11-03T17:16:04.958Z,0
2016-11-03T17:16:45.432Z,0
2016-11-03T17:17:25.932Z,0
2016-11-03T17:18:06.394Z,0
2016-11-03T17:18:46.890Z,0
2016-11-03T17:19:27.378Z,0
2016-11-03T17:20:07.854Z,0
2016-11-03T17:20:48.355Z,0
2016-11-03T17:21:28.829Z,0
2016-11-03T17:22:09.331Z,0
2016-11-03T17:22:49.839Z,0
2016-11-03T17:23:30.311Z,0
2016-11-03T17:24:10.806Z,0
2016-11-03T17:24:51.264Z,0
2016-11-03T17:25:31.740Z,0
2016-11-03T17:26:12.243Z,0
2016-11-03T17:26:52.735Z,0
2016-11-03T17:27:33.210Z,0
2016-11-03T17:28:13.746Z,0
2016-11-03T17:28:54.221Z,0
2016-11-03T17:29:34.722Z,0
2016-11-03T17:30:15.173Z,0
2016-11-03T17:30:55.683Z,0
2016-11-03T17:31:36.152Z,0
2016-11-03T17:32:16.644Z,0
2016-11-03T17:32:57.149Z,0
2016-11-03T17:33:37.676Z,0
2016-11-03T17:34:18.128Z,0
2016-11-03T17:34:58.610Z,0
2016-11-03T17:35:39.126Z,0
2016-11-03T17:36:19.613Z,0
2016-11-03T17:37:00.063Z,0
2016-11-03T17:37:40.571Z,0
2016-11-03T17:38:21.013Z,0
2016-11-03T17:39:01.489Z,0
2016-11-03T17:39:41.973Z,0
2016-11-03T17:40:22.460Z,0
2016-11-03T17:41:02.931Z,0
2016-11-03T17:41:43.384Z,0
2016-11-03T17:42:23.864Z,0
2016-11-03T17:43:04.312Z,0
2016-11-03T17:43:44.915Z,0
2016-11-03T17:44:25.287Z,0
2016-11-03T17:45:05.778Z,0
2016-11-03T17:45:46.263Z,0
2016-11-03T17:46:26.747Z,0
2016-11-03T17:47:07.232Z,0
2016-11-03T17:47:47.741Z,0
2016-11-03T17:48:28.223Z,0
2016-11-03T17:49:08.698Z,0
2016-11-03T17:49:49.198Z,0
2016-11-03T17:50:29.713Z,0
2016-11-03T17:51:10.165Z,0
2016-11-03T17:51:50.656Z,0
2016-11-03T17:52:31.127Z,0
2016-11-03T17:53:11.627Z,0
2016-11-03T17:53:52.079Z,0
2016-11-03T17:54:32.553Z,0
2016-11-03T17:55:13.059Z,0
2016-11-03T17:55:53.521Z,0
2016-11-03T17:56:34.006Z,0
2016-11-03T17:57:14.494Z,0
2016-11-03T17:57:54.982Z,0
2016-11-03T17:58:35.435Z,0
2016-11-03T17:59:15.925Z,0
2016-11-03T17:59:56.411Z,0
2016-11-03T18:00:36.896Z,0
2016-11-03T18:01:17.379Z,0
2016-11-03T18:01:57.891Z,0
2016-11-03T18:02:38.410Z,0
2016-11-03T18:03:18.936Z,0
2016-11-03T18:03:59.398Z,0
2016-11-03T18:04:39.875Z,0
2016-11-03T18:05:20.356Z,0
2016-11-03T18:06:00.824Z,0
2016-11-03T18:06:41.296Z,0
2016-11-03T18:07:21.783Z,0
2016-11-03T18:08:02.283Z,0
2016-11-03T18:08:42.792Z,0
2016-11-03T18:09:23.281Z,0
2016-11-03T18:10:03.786Z,0
2016-11-03T18:10:44.272Z,0
2016-11-03T18:11:24.770Z,0
2016-11-03T18:12:05.353Z,0
2016-11-03T18:12:45.814Z,0
2016-11-03T18:13:26.288Z,0
2016-11-03T18:14:06.785Z,0
2016-11-03T18:14:47.273Z,0
2016-11-03T18:15:27.775Z,0
2016-11-03T18:16:08.211Z,0
2016-11-03T18:16:48.693Z,0
2016-11-03T18:17:29.195Z,0
2016-11-03T18:18:09.710Z,0
2016-11-03T18:18:50.198Z,0
2016-11-03T18:19:30.676Z,0
2016-11-03T18:20:11.169Z,0
2016-11-03T18:20:51.646Z,0
2016-11-03T18:21:32.121Z,0
2016-11-03T18:22:12.755Z,0
2016-11-03T18:22:53.280Z,0
2016-11-03T18:23:33.766Z,0
2016-11-03T18:24:14.276Z,0
2016-11-03T18:24:54.767Z,0
2016-11-03T18:25:35.529Z,0
2016-11-03T18:26:15.999Z,0
2016-11-03T18:26:56.519Z,0
2016-11-03T18:27:37.013Z,0
2016-11-03T18:28:17.508Z,0
2016-11-03T18:28:58.048Z,0
2016-11-03T18:29:38.535Z,0
2016-11-03T18:30:19.030Z,0
2016-11-03T18:30:59.485Z,0
2016-11-03T18:31:39.976Z,0
2016-11-03T18:32:20.473Z,0
2016-11-03T18:33:00.972Z,0
2016-11-03T18:33:41.455Z,0
2016-11-03T18:34:21.936Z,0
2016-11-03T18:35:02.424Z,0
2016-11-03T18:35:42.912Z,0
2016-11-03T18:36:23.397Z,0
2016-11-03T18:37:03.857Z,0
2016-11-03T18:37:44.333Z,0
2016-11-03T18:38:24.833Z,0
2016-11-03T18:39:05.345Z,0
2016-11-03T18:39:45.839Z,0
2016-11-03T18:40:26.307Z,0
2016-11-03T18:41:06.817Z,0
2016-11-03T18:41:47.350Z,0
2016-11-03T18:42:27.831Z,0
2016-11-03T18:43:08.312Z,0
2016-11-03T18:43:48.821Z,0
2016-11-03T18:44:29.311Z,0
2016-11-03T18:45:09.805Z,0
2016-11-03T18:45:50.292Z,0
2016-11-03T18:46:30.789Z,0
2016-11-03T18:47:11.258Z,0
2016-11-03T18:47:51.752Z,0
2016-11-03T18:48:32.250Z,0
2016-11-03T18:49:13.049Z,0
2016-11-03T18:49:53.540Z,0
2016-11-03T18:50:34.071Z,0
2016-11-03T18:51:14.571Z,0
2016-11-03T18:51:55.086Z,0
2016-11-03T18:52:35.563Z,0
2016-11-03T18:53:16.043Z,0
2016-11-03T18:53:56.554Z,0
2016-11-03T18:54:37.027Z,0
2016-11-03T18:55:17.526Z,0
2016-11-03T18:55:58.034Z,0
2016-11-03T18:56:38.509Z,0
2016-11-03T18:57:19.021Z,0
2016-11-03T18:57:59.522Z,0
2016-11-03T18:58:39.980Z,0
2016-11-03T18:59:20.467Z,0
2016-11-03T19:00:00.948Z,0
2016-11-03T19:00:41.441Z,0
2016-11-03T19:01:21.954Z,0
2016-11-03T19:02:02.600Z,0
2016-11-03T19:02:43.099Z,0
2016-11-03T19:03:23.654Z,0
2016-11-03T19:04:04.121Z,0
2016-11-03T19:04:44.666Z,0
2016-11-03T19:05:25.349Z,0
2016-11-03T19:06:05.858Z,0
2016-11-03T19:06:46.351Z,0
2016-11-03T19:07:27.063Z,0
2016-11-03T19:08:07.586Z,0
2016-11-03T19:08:48.096Z,0
2016-11-03T19:09:28.577Z,0
2016-11-03T19:10:09.098Z,0
2016-11-03T19:10:49.600Z,0
2016-11-03T19:11:30.190Z,0
2016-11-03T19:12:11.143Z,0
2016-11-03T19:12:52.103Z,0
2016-11-03T19:13:32.749Z,0
2016-11-03T19:14:13.586Z,0
2016-11-03T19:14:54.140Z,0
2016-11-03T19:15:34.732Z,0
2016-11-03T19:16:15.405Z,0
2016-11-03T19:16:55.981Z,0
2016-11-03T19:17:36.963Z,0
2016-11-03T19:18:17.863Z,0
2016-11-03T19:18:58.422Z,0
2016-11-03T19:19:39.049Z,0
2016-11-03T19:20:19.671Z,0
2016-11-03T19:21:00.766Z,0
2016-11-03T19:21:41.623Z,0
2016-11-03T19:22:22.152Z,0
2016-11-03T19:23:02.611Z,0
2016-11-03T19:23:43.102Z,0
2016-11-03T19:24:23.606Z,0
2016-11-03T19:25:04.089Z,0
2016-11-03T19:25:44.593Z,0
2016-11-03T19:26:25.093Z,0
2016-11-03T19:27:05.579Z,0
2016-11-03T19:27:46.128Z,0
2016-11-03T19:28:26.611Z,0
2016-11-03T19:29:07.091Z,0
2016-11-03T19:29:47.572Z,0
2016-11-03T19:30:28.065Z,0
2016-11-03T19:31:08.533Z,0
2016-11-03T19:31:49.061Z,0
2016-11-03T19:32:29.531Z,0
2016-11-03T19:33:10.017Z,0
2016-11-03T19:33:50.510Z,0
2016-11-03T19:34:31.039Z,0
2016-11-03T19:35:11.528Z,0
2016-11-03T19:35:52.175Z,0
2016-11-03T19:36:32.803Z,0
2016-11-03T19:37:13.293Z,0
2016-11-03T19:37:53.822Z,0
2016-11-03T19:38:34.397Z,0
2016-11-03T19:39:14.878Z,0
2016-11-03T19:39:55.368Z,0
2016-11-03T19:40:35.948Z,0
2016-11-03T19:41:16.402Z,0
2016-11-03T19:41:56.922Z,0
2016-11-03T19:42:37.409Z,0
2016-11-03T19:43:17.891Z,0
2016-11-03T19:43:58.395Z,0
2016-11-03T19:44:38.883Z,0
2016-11-03T19:45:19.377Z,0
2016-11-03T19:45:59.865Z,0
2016-11-03T19:46:40.340Z,0
2016-11-03T19:47:20.784Z,0
2016-11-03T19:48:01.278Z,0
2016-11-03T19:48:41.781Z,0
2016-11-03T19:49:22.233Z,0
2016-11-03T19:50:02.715Z,0
2016-11-03T19:50:43.241Z,0
2016-11-03T19:51:23.724Z,0
2016-11-03T19:52:04.157Z,0
2016-11-03T19:52:44.666Z,0
2016-11-03T19:53:25.144Z,0
2016-11-03T19:54:05.698Z,0
2016-11-03T19:54:46.167Z,0
2016-11-03T19:55:26.637Z,0
2016-11-03T19:56:07.128Z,0
2016-11-03T19:56:47.631Z,0
2016-11-03T19:57:28.104Z,0
2016-11-03T19:58:08.611Z,0
2016-11-03T19:58:49.107Z,0
2016-11-03T19:59:29.592Z,0
2016-11-03T20:00:10.091Z,0
2016-11-03T20:00:50.589Z,0
2016-11-03T20:01:31.084Z,0
2016-11-03T20:02:11.584Z,0
2016-11-03T20:02:52.097Z,0
2016-11-03T20:03:32.593Z,0
2016-11-03T20:04:13.097Z,0
2016-11-03T20:04:53.593Z,0
2016-11-03T20:05:34.132Z,0
2016-11-03T20:06:14.594Z,0
2016-11-03T20:06:55.083Z,0
2016-11-03T20:07:35.585Z,0
2016-11-03T20:08:16.073Z,0
2016-11-03T20:08:56.538Z,0
2016-11-03T20:09:37.081Z,0
2016-11-03T20:10:17.580Z,0
2016-11-03T20:10:58.030Z,0
2016-11-03T20:11:38.498Z,0
2016-11-03T20:12:18.970Z,0
2016-11-03T20:12:59.459Z,0
2016-11-03T20:13:39.952Z,0
2016-11-03T20:14:20.457Z,0
2016-11-03T20:15:00.946Z,0
2016-11-03T20:15:41.460Z,0
2016-11-03T20:16:22.019Z,0
2016-11-03T20:17:02.532Z,0
2016-11-03T20:17:42.994Z,0
2016-11-03T20:18:23.478Z,0
2016-11-03T20:19:03.958Z,0
2016-11-03T20:19:44.444Z,0
2016-11-03T20:20:24.927Z,0
2016-11-03T20:21:05.402Z,0
2016-11-03T20:21:45.858Z,0
2016-11-03T20:22:26.342Z,0
2016-11-03T20:23:06.826Z,0
2016-11-03T20:23:47.350Z,0
2016-11-03T20:24:27.878Z,0
2016-11-03T20:25:08.373Z,0
2016-11-03T20:25:48.836Z,0
2016-11-03T20:26:29.362Z,0
2016-11-03T20:27:09.835Z,0
2016-11-03T20:27:50.398Z,0
2016-11-03T20:28:30.894Z,0
2016-11-03T20:29:11.396Z,0
2016-11-03T20:29:51.884Z,0
2016-11-03T20:30:32.367Z,0
2016-11-03T20:31:12.882Z,0
2016-11-03T20:31:53.335Z,0
2016-11-03T20:32:33.864Z,0
2016-11-03T20:33:14.371Z,0
2016-11-03T20:33:54.863Z,0
2016-11-03T20:34:35.320Z,0
2016-11-03T20:35:15.870Z,0
2016-11-03T20:35:56.343Z,0
2016-11-03T20:36:36.835Z,0
2016-11-03T20:37:17.350Z,0
2016-11-03T20:37:57.819Z,0
2016-11-03T20:38:38.327Z,0
2016-11-03T20:39:18.812Z,0
2016-11-03T20:39:59.321Z,0
2016-11-03T20:40:39.817Z,0
2016-11-03T20:41:20.284Z,0
2016-11-03T20:42:00.788Z,0
2016-11-03T20:42:41.275Z,0
2016-11-03T20:43:21.767Z,0
2016-11-03T20:44:02.217Z,0
2016-11-03T20:44:42.729Z,0
2016-11-03T20:45:23.229Z,0
2016-11-03T20:46:03.707Z,0
2016-11-03T20:46:44.374Z,0
2016-11-03T20:47:24.822Z,0
2016-11-03T20:48:05.482Z,0
2016-11-03T20:48:45.988Z,0
2016-11-03T20:49:26.471Z,0
2016-11-03T20:50:06.963Z,0
2016-11-03T20:50:47.448Z,0
2016-11-03T20:51:27.944Z,0
2016-11-03T20:52:08.452Z,0
2016-11-03T20:52:48.932Z,0
2016-11-03T20:53:29.383Z,0
2016-11-03T20:54:09.875Z,0
2016-11-03T20:54:50.375Z,0
2016-11-03T20:55:30.819Z,0
2016-11-03T20:56:11.297Z,0
2016-11-03T20:56:51.748Z,0
2016-11-03T20:57:32.254Z,0
2016-11-03T20:58:12.721Z,0
2016-11-03T20:58:53.252Z,0
2016-11-03T20:59:33.735Z,0
2016-11-03T21:00:14.317Z,0
2016-11-03T21:00:54.814Z,0
2016-11-03T21:01:35.257Z,0
2016-11-03T21:02:15.735Z,0
2016-11-03T21:02:56.208Z,0
2016-11-03T21:03:36.654Z,0
2016-11-03T21:04:17.130Z,0
2016-11-03T21:04:57.608Z,0
2016-11-03T21:05:38.107Z,0
2016-11-03T21:06:18.590Z,0
2016-11-03T21:06:59.091Z,0
2016-11-03T21:07:39.582Z,0
2016-11-03T21:10:01.466Z,0
2016-11-03T21:10:41.932Z,0
2016-11-03T21:11:22.419Z,0
2016-11-03T21:12:02.914Z,0
2016-11-03T21:12:43.391Z,0
2016-11-03T21:13:23.910Z,0
2016-11-03T21:14:04.437Z,0
2016-11-03T21:14:44.920Z,0
2016-11-03T21:15:25.394Z,0
2016-11-03T21:16:05.872Z,0
2016-11-03T21:16:46.330Z,0
2016-11-03T21:17:26.807Z,0
2016-11-03T21:18:07.270Z,0
2016-11-03T21:18:47.798Z,0
2016-11-03T21:19:28.269Z,0
2016-11-03T21:20:08.746Z,0
2016-11-03T21:20:49.246Z,0
2016-11-03T21:21:32.268Z,0
2016-11-03T21:22:12.747Z,0
2016-11-03T21:22:53.235Z,0
2016-11-03T21:23:33.745Z,0
2016-11-03T21:24:14.209Z,0
2016-11-03T21:24:54.686Z,0
2016-11-03T21:25:35.169Z,0
2016-11-03T21:26:15.675Z,0
2016-11-03T21:26:56.168Z,0
2016-11-03T21:27:36.640Z,0
2016-11-03T21:28:17.116Z,0
2016-11-03T21:28:57.647Z,0
2016-11-03T21:29:38.134Z,0
2016-11-03T21:30:18.608Z,0
2016-11-03T21:30:59.132Z,0
2016-11-03T21:31:39.607Z,0
2016-11-03T21:32:20.093Z,0
2016-11-03T21:33:00.594Z,0
2016-11-03T21:33:41.086Z,0
2016-11-03T21:34:21.590Z,0
2016-11-03T21:35:02.092Z,0
2016-11-03T21:35:42.554Z,0
2016-11-03T21:36:23.051Z,0
2016-11-03T21:37:03.505Z,0
2016-11-03T21:37:44.049Z,0
2016-11-03T21:38:24.464Z,0
2016-11-03T21:39:04.949Z,0
2016-11-03T21:39:45.421Z,0
2016-11-03T21:40:25.885Z,0
2016-11-03T21:41:06.370Z,0
2016-11-03T21:41:46.846Z,0
2016-11-03T21:42:27.333Z,0
2016-11-03T21:43:07.824Z,0
2016-11-03T21:43:48.292Z,0
2016-11-03T21:44:28.788Z,0
2016-11-03T21:45:09.278Z,0
2016-11-03T21:45:49.736Z,0
2016-11-03T21:46:30.232Z,0
2016-11-03T21:47:10.717Z,0
2016-11-03T21:47:51.192Z,0
2016-11-03T21:48:31.675Z,0
2016-11-03T21:49:12.202Z,0
2016-11-03T21:49:52.676Z,0
2016-11-03T21:50:33.158Z,0
2016-11-03T21:51:13.676Z,0
2016-11-03T21:51:54.158Z,0
2016-11-03T21:52:34.663Z,0
2016-11-03T21:53:15.126Z,0
2016-11-03T21:53:55.615Z,0
2016-11-03T21:54:36.113Z,0
2016-11-03T21:55:16.580Z,0
2016-11-03T21:55:57.070Z,0
2016-11-03T21:56:37.558Z,0
2016-11-03T21:57:18.026Z,0
2016-11-03T21:57:58.504Z,0
2016-11-03T21:58:38.987Z,0
2016-11-03T21:59:19.473Z,0
2016-11-03T21:59:59.971Z,0
2016-11-03T22:00:40.469Z,0
2016-11-03T22:01:20.939Z,0
2016-11-03T22:02:01.414Z,0
2016-11-03T22:02:41.927Z,0
2016-11-03T22:03:22.449Z,0
2016-11-03T22:04:02.900Z,0
2016-11-03T22:04:43.365Z,0
2016-11-03T22:05:23.830Z,0
2016-11-03T22:06:04.301Z,0
2016-11-03T22:06:44.795Z,0
2016-11-03T22:07:25.269Z,0
2016-11-03T22:08:05.762Z,0
2016-11-03T22:08:46.274Z,0
2016-11-03T22:09:26.745Z,0
2016-11-03T22:10:07.208Z,0
2016-11-03T22:10:47.683Z,0
2016-11-03T22:11:28.184Z,0
2016-11-03T22:12:08.654Z,0
2016-11-03T22:12:49.138Z,0
2016-11-03T22:13:29.647Z,0
2016-11-03T22:14:10.126Z,0
2016-11-03T22:14:50.614Z,0
2016-11-03T22:15:31.095Z,0
2016-11-03T22:16:11.561Z,0
2016-11-03T22:16:52.043Z,0
2016-11-03T22:17:32.534Z,0
2016-11-03T22:18:12.998Z,0
2016-11-03T22:18:53.536Z,0
2016-11-03T22:19:34.003Z,0
2016-11-03T22:20:14.470Z,0
2016-11-03T22:20:54.937Z,0
2016-11-03T22:21:35.411Z,0
2016-11-03T22:22:15.914Z,0
2016-11-03T22:22:56.383Z,0
2016-11-03T22:23:36.842Z,0
2016-11-03T22:24:17.379Z,0
2016-11-03T22:24:57.842Z,0
2016-11-03T22:25:38.316Z,0
2016-11-03T22:26:18.800Z,0
2016-11-03T22:26:59.271Z,0
2016-11-03T22:27:39.732Z,0
2016-11-03T22:28:20.225Z,0
2016-11-03T22:29:00.733Z,0
2016-11-03T22:29:41.244Z,0
2016-11-03T22:30:21.710Z,0
2016-11-03T22:31:02.189Z,0
2016-11-03T22:31:42.684Z,0
2016-11-03T22:32:23.207Z,0
2016-11-03T22:33:03.677Z,0
2016-11-03T22:33:44.179Z,0
2016-11-03T22:34:24.660Z,0
2016-11-03T22:35:05.146Z,0
2016-11-03T22:35:45.586Z,0
2016-11-03T22:36:26.064Z,0
2016-11-03T22:37:06.532Z,0
2016-11-03T22:37:47.061Z,0
2016-11-03T22:38:27.538Z,0
2016-11-03T22:39:08.008Z,0
2016-11-03T22:39:48.485Z,0
2016-11-03T22:40:28.978Z,0
2016-11-03T22:41:09.488Z,0
2016-11-03T22:41:49.980Z,0
2016-11-03T22:42:30.481Z,0
2016-11-03T22:43:10.958Z,0
2016-11-03T22:43:51.451Z,0
2016-11-03T22:44:31.936Z,0
2016-11-03T22:45:12.395Z,0
2016-11-03T22:45:52.880Z,0
2016-11-03T22:46:34.880Z,0
2016-11-03T22:47:15.375Z,0
2016-11-03T22:47:55.834Z,0
2016-11-03T22:48:36.318Z,0
2016-11-03T22:49:16.786Z,0
2016-11-03T22:49:57.269Z,0
2016-11-03T22:50:37.796Z,0
2016-11-03T22:51:18.251Z,0
2016-11-03T22:51:58.740Z,0
2016-11-03T22:52:39.213Z,0
2016-11-03T22:53:19.683Z,0
2016-11-03T22:54:00.159Z,0
2016-11-03T22:54:40.671Z,0
2016-11-03T22:55:21.161Z,0
2016-11-03T22:56:01.634Z,0
2016-11-03T22:56:42.139Z,0
2016-11-03T22:57:22.632Z,0
2016-11-03T22:58:03.094Z,0
2016-11-03T22:58:43.573Z,0
2016-11-03T22:59:24.042Z,0
2016-11-03T23:00:04.568Z,0
2016-11-03T23:00:45.091Z,0
2016-11-03T23:01:25.596Z,0
2016-11-03T23:02:06.076Z,0
2016-11-03T23:02:46.534Z,0
2016-11-03T23:03:27.016Z,0
2016-11-03T23:04:07.495Z,0
2016-11-03T23:04:47.974Z,0
2016-11-03T23:05:28.472Z,0
2016-11-03T23:06:08.982Z,0
2016-11-03T23:06:49.455Z,0
2016-11-03T23:07:29.917Z,0
2016-11-03T23:08:10.363Z,0
2016-11-03T23:08:50.847Z,0
2016-11-03T23:09:31.351Z,0
2016-11-03T23:10:11.836Z,0
2016-11-03T23:10:52.308Z,0
2016-11-03T23:11:32.786Z,0
2016-11-03T23:12:13.270Z,0
2016-11-03T23:12:53.749Z,0
2016-11-03T23:13:34.220Z,0
2016-11-03T23:14:14.706Z,0
2016-11-03T23:14:55.204Z,0
2016-11-03T23:15:35.691Z,0
2016-11-03T23:16:16.156Z,0
2016-11-03T23:16:56.633Z,0
2016-11-03T23:17:37.091Z,0
2016-11-03T23:18:17.566Z,0
2016-11-03T23:18:58.042Z,0
2016-11-03T23:19:38.544Z,0
2016-11-03T23:20:19.013Z,0
2016-11-03T23:20:59.507Z,0
2016-11-03T23:21:39.981Z,0
2016-11-03T23:22:20.462Z,0
2016-11-03T23:23:00.954Z,0
2016-11-03T23:23:41.479Z,0
2016-11-03T23:24:21.941Z,0
2016-11-03T23:25:02.444Z,0
2016-11-03T23:25:42.949Z,0
2016-11-03T23:26:23.436Z,0
2016-11-03T23:27:03.936Z,0
2016-11-03T23:27:44.449Z,0
2016-11-03T23:28:24.941Z,0
2016-11-03T23:29:05.392Z,0
2016-11-03T23:29:45.914Z,0
2016-11-03T23:30:26.382Z,0
2016-11-03T23:31:06.863Z,0
2016-11-03T23:31:47.368Z,0
2016-11-03T23:32:27.824Z,0
2016-11-03T23:33:08.298Z,0
2016-11-03T23:33:48.781Z,0
2016-11-03T23:34:29.279Z,0
2016-11-03T23:35:09.761Z,0
2016-11-03T23:35:50.240Z,0
2016-11-03T23:36:30.746Z,0
2016-11-03T23:37:11.210Z,0
2016-11-03T23:37:51.688Z,0
2016-11-03T23:38:32.146Z,0
2016-11-03T23:39:12.618Z,0
2016-11-03T23:39:53.085Z,0
2016-11-03T23:40:33.553Z,0
2016-11-03T23:41:14.053Z,0
2016-11-03T23:41:54.527Z,0
2016-11-03T23:42:34.983Z,0
2016-11-03T23:43:15.464Z,0
2016-11-03T23:43:55.985Z,0
2016-11-03T23:44:36.965Z,0
2016-11-03T23:45:16.903Z,0
2016-11-03T23:45:57.392Z,0
2016-11-03T23:46:37.866Z,0
2016-11-03T23:47:18.373Z,0
2016-11-03T23:47:58.861Z,0
2016-11-03T23:48:39.344Z,0
2016-11-03T23:49:19.828Z,0
2016-11-03T23:50:00.343Z,0
2016-11-03T23:50:40.834Z,0
2016-11-03T23:51:21.319Z,0
2016-11-03T23:52:01.777Z,0
2016-11-03T23:52:42.271Z,0
2016-11-03T23:53:22.752Z,0
2016-11-03T23:54:03.239Z,0
2016-11-03T23:54:43.723Z,0
2016-11-03T23:55:24.228Z,0
2016-11-03T23:56:04.740Z,0
2016-11-03T23:56:45.230Z,0
2016-11-03T23:57:25.712Z,0
2016-11-03T23:58:06.204Z,0
2016-11-03T23:58:46.655Z,0
2016-11-03T23:59:27.124Z,0
